KMUO/MUO METAR and TAF weather

Enter ICAO airport designator
Station Type Date Time Source
KMUO METAR 2019/06/17 03:58 UTC NOAA

KMUO 170358Z AUTO 33007KT 10SM CLR 24/04 A2984 RMK AO2 SLP079 T02380037 $


Station Type Date Time Source
KMUO Decoded METAR 2019/06/17 03:58 UTC NOAA

Mountain Home Air Force Base, ID, United States (KMUO) 43-03N 115-52W
Jun 16, 2019 - 11:58 PM EDT / 2019.06.17 0358 UTC
Wind: from the NNW (330 degrees) at 8 MPH (7 KT):0
Visibility: 10 mile(s):0
Sky conditions: clear
Temperature: 74.8 F (23.8 C)
Dew Point: 38.7 F (3.7 C)
Relative Humidity: 27%
Pressure (altimeter): 29.84 in. Hg (1010 hPa)
ob: KMUO 170358Z AUTO 33007KT 10SM CLR 24/04 A2984 RMK AO2 SLP079 T02380037
cycle: 4

Station Type Date Time Source
KMUO TAF 2019/06/14 21:46 UTC NOAA

TAF
AMD KMUO 142140Z 1421/1524 32015G25KT 9999 FEW200 QNH2992INS
BECMG 1501/1502 32009KT 9999 FEW120 SCT200 QNH2987INS
BECMG 1514/1515 32012G20KT 9999 SCT200 QNH2994INS TX30/1423Z TN14/1510Z LAST NO
AMDS AFT 1400 NEXT 1710

Example: see airport list